sensor_id;sensor_type;location;lat;lon;timestamp;pressure;altitude;pressure_sealevel;temperature;humidity
61697;BME280;47610;52.252;20.922;2023-04-01T00:01:21;98303.23;;;9.99;100.00
61697;BME280;47610;52.252;20.922;2023-04-01T00:06:24;98296.34;;;9.96;100.00
61697;BME280;47610;52.252;20.922;2023-04-01T00:11:27;98291.80;;;9.93;100.00
61697;BME280;47610;52.252;20.922;2023-04-01T00:16:30;98288.67;;;9.89;100.00
61697;BME280;47610;52.252;20.922;2023-04-01T00:21:34;98284.37;;;9.88;100.00
61697;BME280;47610;52.252;20.922;2023-04-01T00:26:37;98287.19;;;9.90;100.00
61697;BME280;47610;52.252;20.922;2023-04-01T00:31:40;98270.05;;;9.89;100.00
61697;BME280;47610;52.252;20.922;2023-04-01T00:36:43;98275.96;;;9.85;100.00
61697;BME280;47610;52.252;20.922;2023-04-01T00:41:47;98270.05;;;9.78;100.00
61697;BME280;47610;52.252;20.922;2023-04-01T00:46:51;98271.82;;;9.74;100.00
61697;BME280;47610;52.252;20.922;2023-04-01T00:51:55;98268.87;;;9.72;100.00
61697;BME280;47610;52.252;20.922;2023-04-01T00:57:02;98266.45;;;9.71;100.00
61697;BME280;47610;52.252;20.922;2023-04-01T01:02:10;98263.30;;;9.74;100.00
61697;BME280;47610;52.252;20.922;2023-04-01T01:07:22;98267.52;;;9.77;100.00
61697;BME280;47610;52.252;20.922;2023-04-01T01:12:34;98261.57;;;9.75;100.00
61697;BME280;47610;52.252;20.922;2023-04-01T01:17:50;98261.66;;;9.76;100.00
61697;BME280;47610;52.252;20.922;2023-04-01T01:23:12;98260.05;;;9.71;100.00
61697;BME280;47610;52.252;20.922;2023-04-01T01:28:33;98260.83;;;9.71;100.00
61697;BME280;47610;52.252;20.922;2023-04-01T01:33:54;98261.66;;;9.69;100.00
61697;BME280;47610;52.252;20.922;2023-04-01T01:39:02;98268.41;;;9.71;100.00
61697;BME280;47610;52.252;20.922;2023-04-01T01:44:08;98272.67;;;9.73;100.00
61697;BME280;47610;52.252;20.922;2023-04-01T01:49:14;98271.30;;;9.75;100.00
61697;BME280;47610;52.252;20.922;2023-04-01T01:54:18;98272.09;;;9.78;100.00
61697;BME280;47610;52.252;20.922;2023-04-01T01:59:22;98272.25;;;9.82;100.00
61697;BME280;47610;52.252;20.922;2023-04-01T02:04:28;98268.86;;;9.87;100.00
61697;BME280;47610;52.252;20.922;2023-04-01T02:09:31;98258.83;;;9.89;100.00
61697;BME280;47610;52.252;20.922;2023-04-01T02:14:41;98253.77;;;9.88;100.00
61697;BME280;47610;52.252;20.922;2023-04-01T02:19:50;98256.05;;;9.89;100.00
61697;BME280;47610;52.252;20.922;2023-04-01T02:24:57;98243.58;;;9.87;100.00
61697;BME280;47610;52.252;20.922;2023-04-01T02:30:01;98242.13;;;9.88;100.00
61697;BME280;47610;52.252;20.922;2023-04-01T02:35:06;98240.27;;;9.87;100.00
61697;BME280;47610;52.252;20.922;2023-04-01T02:40:13;98234.09;;;9.86;100.00
61697;BME280;47610;52.252;20.922;2023-04-01T02:45:16;98230.92;;;9.84;100.00
61697;BME280;47610;52.252;20.922;2023-04-01T02:50:20;98233.20;;;9.80;100.00
61697;BME280;47610;52.252;20.922;2023-04-01T02:55:23;98236.78;;;9.76;100.00
61697;BME280;47610;52.252;20.922;2023-04-01T03:00:27;98239.74;;;9.67;100.00
61697;BME280;47610;52.252;20.922;2023-04-01T03:05:30;98244.91;;;9.65;100.00
61697;BME280;47610;52.252;20.922;2023-04-01T03:10:33;98249.70;;;9.70;100.00
61697;BME280;47610;52.252;20.922;2023-04-01T03:15:36;98253.27;;;9.74;100.00
61697;BME280;47610;52.252;20.922;2023-04-01T03:20:40;98259.63;;;9.76;100.00
61697;BME280;47610;52.252;20.922;2023-04-01T03:25:43;98267.74;;;9.75;100.00
61697;BME280;47610;52.252;20.922;2023-04-01T03:30:46;98260.16;;;9.73;100.00
61697;BME280;47610;52.252;20.922;2023-04-01T03:35:50;98261.60;;;9.71;100.00
61697;BME280;47610;52.252;20.922;2023-04-01T03:40:53;98267.73;;;9.66;100.00
61697;BME280;47610;52.252;20.922;2023-04-01T03:45:56;98266.50;;;9.62;100.00
61697;BME280;47610;52.252;20.922;2023-04-01T03:51:00;98273.08;;;9.56;100.00
61697;BME280;47610;52.252;20.922;2023-04-01T03:56:08;98279.41;;;9.54;100.00
61697;BME280;47610;52.252;20.922;2023-04-01T04:01:19;98285.05;;;9.49;100.00
61697;BME280;47610;52.252;20.922;2023-04-01T04:06:23;98290.38;;;9.46;100.00
61697;BME280;47610;52.252;20.922;2023-04-01T04:11:27;98296.30;;;9.46;100.00
61697;BME280;47610;52.252;20.922;2023-04-01T04:16:30;98299.19;;;9.46;100.00
61697;BME280;47610;52.252;20.922;2023-04-01T04:21:33;98303.85;;;9.47;100.00
61697;BME280;47610;52.252;20.922;2023-04-01T04:26:37;98308.73;;;9.47;100.00
61697;BME280;47610;52.252;20.922;2023-04-01T04:31:40;98312.25;;;9.48;100.00
61697;BME280;47610;52.252;20.922;2023-04-01T04:36:44;98314.27;;;9.51;100.00
61697;BME280;47610;52.252;20.922;2023-04-01T04:41:47;98318.97;;;9.54;100.00
61697;BME280;47610;52.252;20.922;2023-04-01T04:46:51;98324.40;;;9.56;100.00
61697;BME280;47610;52.252;20.922;2023-04-01T04:51:54;98323.95;;;9.57;100.00
61697;BME280;47610;52.252;20.922;2023-04-01T04:56:57;98319.46;;;9.56;100.00
61697;BME280;47610;52.252;20.922;2023-04-01T05:02:00;98321.37;;;9.56;100.00
61697;BME280;47610;52.252;20.922;2023-04-01T05:07:04;98325.27;;;9.58;100.00
61697;BME280;47610;52.252;20.922;2023-04-01T05:12:07;98325.20;;;9.58;100.00
61697;BME280;47610;52.252;20.922;2023-04-01T05:17:11;98322.52;;;9.58;100.00
61697;BME280;47610;52.252;20.922;2023-04-01T05:22:16;98322.84;;;9.58;100.00
61697;BME280;47610;52.252;20.922;2023-04-01T05:27:19;98328.30;;;9.64;100.00
61697;BME280;47610;52.252;20.922;2023-04-01T05:32:22;98330.33;;;9.80;100.00
61697;BME280;47610;52.252;20.922;2023-04-01T05:37:26;98326.27;;;10.08;100.00
61697;BME280;47610;52.252;20.922;2023-04-01T05:42:29;98329.36;;;10.41;100.00
61697;BME280;47610;52.252;20.922;2023-04-01T05:47:32;98332.29;;;10.66;100.00
61697;BME280;47610;52.252;20.922;2023-04-01T05:52:35;98334.91;;;10.96;100.00
61697;BME280;47610;52.252;20.922;2023-04-01T05:57:39;98335.22;;;11.81;100.00
61697;BME280;47610;52.252;20.922;2023-04-01T06:02:42;98331.92;;;12.47;100.00
61697;BME280;47610;52.252;20.922;2023-04-01T06:07:46;98331.64;;;12.72;100.00
61697;BME280;47610;52.252;20.922;2023-04-01T06:12:59;98336.17;;;12.91;100.00
61697;BME280;47610;52.252;20.922;2023-04-01T06:18:19;98341.02;;;12.80;100.00
61697;BME280;47610;52.252;20.922;2023-04-01T06:23:38;98345.27;;;12.52;100.00
61697;BME280;47610;52.252;20.922;2023-04-01T06:40:08;98355.19;;;12.03;100.00
61697;BME280;47610;52.252;20.922;2023-04-01T06:45:31;98350.17;;;12.06;100.00
61697;BME280;47610;52.252;20.922;2023-04-01T06:50:40;98354.77;;;12.42;100.00
61697;BME280;47610;52.252;20.922;2023-04-01T06:55:51;98350.27;;;12.63;100.00
61697;BME280;47610;52.252;20.922;2023-04-01T07:00:59;98349.88;;;12.88;100.00
61697;BME280;47610;52.252;20.922;2023-04-01T07:06:05;98353.16;;;13.17;100.00
61697;BME280;47610;52.252;20.922;2023-04-01T07:11:13;98355.32;;;13.22;100.00
61697;BME280;47610;52.252;20.922;2023-04-01T07:16:24;98361.98;;;13.09;100.00
61697;BME280;47610;52.252;20.922;2023-04-01T07:21:32;98357.96;;;12.80;100.00
61697;BME280;47610;52.252;20.922;2023-04-01T07:26:37;98358.06;;;12.67;100.00
61697;BME280;47610;52.252;20.922;2023-04-01T07:31:59;98352.78;;;12.69;100.00
61697;BME280;47610;52.252;20.922;2023-04-01T07:37:09;98356.25;;;12.55;100.00
61697;BME280;47610;52.252;20.922;2023-04-01T07:42:19;98358.51;;;12.38;100.00
61697;BME280;47610;52.252;20.922;2023-04-01T07:47:41;98358.83;;;12.62;100.00
61697;BME280;47610;52.252;20.922;2023-04-01T07:52:53;98361.96;;;13.00;100.00
61697;BME280;47610;52.252;20.922;2023-04-01T07:58:07;98365.67;;;13.22;100.00
61697;BME280;47610;52.252;20.922;2023-04-01T08:03:24;98364.64;;;13.56;100.00
61697;BME280;47610;52.252;20.922;2023-04-01T08:08:40;98363.86;;;13.79;100.00
61697;BME280;47610;52.252;20.922;2023-04-01T08:13:53;98369.73;;;13.70;100.00
61697;BME280;47610;52.252;20.922;2023-04-01T08:19:07;98367.61;;;13.57;100.00
61697;BME280;47610;52.252;20.922;2023-04-01T08:24:20;98377.10;;;13.73;100.00
61697;BME280;47610;52.252;20.922;2023-04-01T08:29:30;98374.95;;;13.75;100.00
61697;BME280;47610;52.252;20.922;2023-04-01T08:34:38;98384.46;;;14.72;100.00
61697;BME280;47610;52.252;20.922;2023-04-01T08:39:45;98389.52;;;15.49;100.00
61697;BME280;47610;52.252;20.922;2023-04-01T08:45:10;98388.80;;;15.73;100.00
61697;BME280;47610;52.252;20.922;2023-04-01T08:50:31;98395.95;;;15.74;100.00
61697;BME280;47610;52.252;20.922;2023-04-01T08:55:46;98396.09;;;15.59;100.00
61697;BME280;47610;52.252;20.922;2023-04-01T09:01:09;98398.20;;;15.21;100.00
61697;BME280;47610;52.252;20.922;2023-04-01T09:06:31;98397.45;;;14.69;100.00
61697;BME280;47610;52.252;20.922;2023-04-01T09:11:45;98394.13;;;14.19;100.00
61697;BME280;47610;52.252;20.922;2023-04-01T09:17:20;98399.14;;;13.76;100.00
61697;BME280;47610;52.252;20.922;2023-04-01T09:22:39;98399.20;;;13.51;100.00
61697;BME280;47610;52.252;20.922;2023-04-01T09:27:56;98399.95;;;13.36;100.00
61697;BME280;47610;52.252;20.922;2023-04-01T09:33:20;98408.02;;;13.29;100.00
61697;BME280;47610;52.252;20.922;2023-04-01T09:38:32;98411.05;;;13.24;100.00
61697;BME280;47610;52.252;20.922;2023-04-01T09:43:52;98416.20;;;13.31;100.00
61697;BME280;47610;52.252;20.922;2023-04-01T09:54:54;98414.08;;;13.43;100.00
61697;BME280;47610;52.252;20.922;2023-04-01T10:00:16;98416.41;;;13.46;100.00
61697;BME280;47610;52.252;20.922;2023-04-01T10:11:33;98422.02;;;13.37;100.00
61697;BME280;47610;52.252;20.922;2023-04-01T10:17:01;98425.73;;;13.37;100.00
61697;BME280;47610;52.252;20.922;2023-04-01T10:22:36;98429.32;;;13.66;100.00
61697;BME280;47610;52.252;20.922;2023-04-01T10:28:14;98433.79;;;14.36;100.00
61697;BME280;47610;52.252;20.922;2023-04-01T10:33:56;98429.05;;;15.00;100.00
61697;BME280;47610;52.252;20.922;2023-04-01T10:39:24;98431.52;;;15.32;100.00
61697;BME280;47610;52.252;20.922;2023-04-01T10:44:57;98435.70;;;15.65;100.00
61697;BME280;47610;52.252;20.922;2023-04-01T10:56:09;98428.79;;;15.49;100.00
61697;BME280;47610;52.252;20.922;2023-04-01T11:01:45;98428.91;;;15.41;100.00
61697;BME280;47610;52.252;20.922;2023-04-01T11:07:18;98432.35;;;15.19;100.00
61697;BME280;47610;52.252;20.922;2023-04-01T11:13:02;98436.90;;;14.79;100.00
61697;BME280;47610;52.252;20.922;2023-04-01T11:24:04;98434.77;;;14.14;100.00
61697;BME280;47610;52.252;20.922;2023-04-01T11:29:30;98439.09;;;13.94;100.00
61697;BME280;47610;52.252;20.922;2023-04-01T11:34:59;98441.11;;;13.81;100.00
61697;BME280;47610;52.252;20.922;2023-04-01T11:40:14;98446.39;;;13.83;100.00
61697;BME280;47610;52.252;20.922;2023-04-01T11:45:21;98448.66;;;13.99;100.00
61697;BME280;47610;52.252;20.922;2023-04-01T11:50:35;98448.92;;;14.19;100.00
61697;BME280;47610;52.252;20.922;2023-04-01T11:55:53;98448.84;;;14.44;100.00
61697;BME280;47610;52.252;20.922;2023-04-01T12:01:16;98454.02;;;14.66;100.00
61697;BME280;47610;52.252;20.922;2023-04-01T12:06:29;98451.35;;;14.80;100.00
61697;BME280;47610;52.252;20.922;2023-04-01T12:11:41;98450.86;;;14.98;100.00
61697;BME280;47610;52.252;20.922;2023-04-01T12:16:52;98451.02;;;15.27;100.00
61697;BME280;47610;52.252;20.922;2023-04-01T12:22:22;98453.39;;;15.68;100.00
61697;BME280;47610;52.252;20.922;2023-04-01T12:27:41;98454.29;;;15.96;100.00
61697;BME280;47610;52.252;20.922;2023-04-01T12:32:49;98458.02;;;16.23;100.00
61697;BME280;47610;52.252;20.922;2023-04-01T12:38:13;98458.36;;;16.44;100.00
61697;BME280;47610;52.252;20.922;2023-04-01T12:43:40;98461.07;;;16.41;100.00
61697;BME280;47610;52.252;20.922;2023-04-01T13:00:25;98468.42;;;15.43;100.00
61697;BME280;47610;52.252;20.922;2023-04-01T13:11:22;98476.65;;;14.43;100.00
61697;BME280;47610;52.252;20.922;2023-04-01T13:16:33;98482.27;;;13.83;100.00
61697;BME280;47610;52.252;20.922;2023-04-01T13:21:46;98486.94;;;13.29;100.00
61697;BME280;47610;52.252;20.922;2023-04-01T13:27:05;98492.98;;;12.90;100.00
61697;BME280;47610;52.252;20.922;2023-04-01T13:32:26;98498.28;;;12.61;100.00
61697;BME280;47610;52.252;20.922;2023-04-01T13:43:04;98504.37;;;12.51;100.00
61697;BME280;47610;52.252;20.922;2023-04-01T13:48:28;98507.12;;;12.53;100.00
61697;BME280;47610;52.252;20.922;2023-04-01T13:54:02;98516.80;;;12.67;100.00
61697;BME280;47610;52.252;20.922;2023-04-01T13:59:37;98527.36;;;12.65;100.00
61697;BME280;47610;52.252;20.922;2023-04-01T14:04:51;98536.26;;;12.50;100.00
61697;BME280;47610;52.252;20.922;2023-04-01T14:10:21;98533.63;;;12.24;100.00
61697;BME280;47610;52.252;20.922;2023-04-01T14:21:19;98549.07;;;11.90;100.00
61697;BME280;47610;52.252;20.922;2023-04-01T14:26:39;98552.17;;;11.73;100.00
61697;BME280;47610;52.252;20.922;2023-04-01T14:31:51;98555.06;;;11.50;100.00
61697;BME280;47610;52.252;20.922;2023-04-01T14:37:10;98558.59;;;11.24;100.00
61697;BME280;47610;52.252;20.922;2023-04-01T14:42:30;98563.15;;;11.04;100.00
61697;BME280;47610;52.252;20.922;2023-04-01T14:48:00;98575.04;;;11.06;100.00
61697;BME280;47610;52.252;20.922;2023-04-01T14:53:23;98578.21;;;11.00;100.00
61697;BME280;47610;52.252;20.922;2023-04-01T14:58:44;98589.02;;;10.89;100.00
61697;BME280;47610;52.252;20.922;2023-04-01T15:03:55;98592.23;;;10.69;100.00
61697;BME280;47610;52.252;20.922;2023-04-01T15:09:08;98601.30;;;10.54;100.00
61697;BME280;47610;52.252;20.922;2023-04-01T15:14:28;98611.95;;;10.47;100.00
61697;BME280;47610;52.252;20.922;2023-04-01T15:19:41;98614.02;;;10.41;100.00
61697;BME280;47610;52.252;20.922;2023-04-01T15:25:01;98622.80;;;10.41;100.00
61697;BME280;47610;52.252;20.922;2023-04-01T15:30:25;98631.27;;;10.34;100.00
61697;BME280;47610;52.252;20.922;2023-04-01T15:35:39;98633.87;;;10.21;100.00
61697;BME280;47610;52.252;20.922;2023-04-01T15:40:49;98643.61;;;10.10;100.00
61697;BME280;47610;52.252;20.922;2023-04-01T15:46:14;98648.05;;;10.01;100.00
61697;BME280;47610;52.252;20.922;2023-04-01T15:51:38;98657.38;;;9.94;100.00
61697;BME280;47610;52.252;20.922;2023-04-01T15:56:55;98663.78;;;9.91;100.00
61697;BME280;47610;52.252;20.922;2023-04-01T16:02:14;98672.43;;;9.90;100.00
61697;BME280;47610;52.252;20.922;2023-04-01T16:13:11;98687.70;;;9.86;100.00
61697;BME280;47610;52.252;20.922;2023-04-01T16:18:32;98701.14;;;9.77;100.00
61697;BME280;47610;52.252;20.922;2023-04-01T16:23:46;98706.08;;;9.71;100.00
61697;BME280;47610;52.252;20.922;2023-04-01T16:28:57;98711.86;;;9.61;100.00
61697;BME280;47610;52.252;20.922;2023-04-01T16:34:10;98719.63;;;9.58;100.00
61697;BME280;47610;52.252;20.922;2023-04-01T16:39:34;98730.67;;;9.53;100.00
61697;BME280;47610;52.252;20.922;2023-04-01T16:44:50;98737.71;;;9.50;100.00
61697;BME280;47610;52.252;20.922;2023-04-01T16:49:59;98750.73;;;9.40;100.00
61697;BME280;47610;52.252;20.922;2023-04-01T16:55:16;98765.14;;;9.28;100.00
61697;BME280;47610;52.252;20.922;2023-04-01T17:00:25;98773.03;;;9.19;100.00
61697;BME280;47610;52.252;20.922;2023-04-01T17:05:42;98783.13;;;9.14;100.00
61697;BME280;47610;52.252;20.922;2023-04-01T17:10:51;98790.52;;;9.12;100.00
61697;BME280;47610;52.252;20.922;2023-04-01T17:16:04;98795.74;;;9.11;100.00
61697;BME280;47610;52.252;20.922;2023-04-01T17:21:13;98804.48;;;9.11;100.00
61697;BME280;47610;52.252;20.922;2023-04-01T17:26:28;98810.55;;;9.07;100.00
61697;BME280;47610;52.252;20.922;2023-04-01T17:31:46;98819.23;;;8.98;100.00
61697;BME280;47610;52.252;20.922;2023-04-01T17:37:02;98827.88;;;8.86;100.00
61697;BME280;47610;52.252;20.922;2023-04-01T17:42:10;98836.10;;;8.78;100.00
61697;BME280;47610;52.252;20.922;2023-04-01T17:47:34;98847.25;;;8.71;100.00
61697;BME280;47610;52.252;20.922;2023-04-01T17:52:44;98856.59;;;8.64;100.00
61697;BME280;47610;52.252;20.922;2023-04-01T17:57:54;98868.13;;;8.60;100.00
61697;BME280;47610;52.252;20.922;2023-04-01T18:03:13;98874.86;;;8.57;100.00
61697;BME280;47610;52.252;20.922;2023-04-01T18:08:39;98881.17;;;8.50;100.00
61697;BME280;47610;52.252;20.922;2023-04-01T18:19:29;98896.92;;;8.36;100.00
61697;BME280;47610;52.252;20.922;2023-04-01T18:24:42;98904.94;;;8.32;100.00
61697;BME280;47610;52.252;20.922;2023-04-01T18:29:50;98915.74;;;8.27;100.00
61697;BME280;47610;52.252;20.922;2023-04-01T18:35:01;98925.26;;;8.26;100.00
61697;BME280;47610;52.252;20.922;2023-04-01T18:40:19;98933.19;;;8.27;100.00
61697;BME280;47610;52.252;20.922;2023-04-01T18:45:28;98940.96;;;8.29;100.00
61697;BME280;47610;52.252;20.922;2023-04-01T18:50:40;98947.70;;;8.29;100.00
61697;BME280;47610;52.252;20.922;2023-04-01T18:55:49;98954.16;;;8.30;100.00
61697;BME280;47610;52.252;20.922;2023-04-01T19:01:04;98957.64;;;8.27;100.00
61697;BME280;47610;52.252;20.922;2023-04-01T19:06:18;98964.60;;;8.24;100.00
61697;BME280;47610;52.252;20.922;2023-04-01T19:11:35;98965.09;;;8.19;100.00
61697;BME280;47610;52.252;20.922;2023-04-01T19:16:51;98970.38;;;8.18;100.00
61697;BME280;47610;52.252;20.922;2023-04-01T19:22:10;98977.27;;;8.20;100.00
61697;BME280;47610;52.252;20.922;2023-04-01T19:27:22;98982.52;;;8.20;100.00
61697;BME280;47610;52.252;20.922;2023-04-01T19:32:41;98988.41;;;8.18;100.00
61697;BME280;47610;52.252;20.922;2023-04-01T19:37:59;98998.28;;;8.19;100.00
61697;BME280;47610;52.252;20.922;2023-04-01T19:43:05;99010.05;;;8.19;100.00
61697;BME280;47610;52.252;20.922;2023-04-01T19:48:28;99013.77;;;8.16;100.00
61697;BME280;47610;52.252;20.922;2023-04-01T19:53:40;99020.55;;;8.13;100.00
61697;BME280;47610;52.252;20.922;2023-04-01T19:58:47;99030.14;;;8.14;100.00
61697;BME280;47610;52.252;20.922;2023-04-01T20:03:56;99034.22;;;8.15;100.00
61697;BME280;47610;52.252;20.922;2023-04-01T20:09:25;99040.03;;;8.15;100.00
61697;BME280;47610;52.252;20.922;2023-04-01T20:14:38;99047.90;;;8.17;100.00
61697;BME280;47610;52.252;20.922;2023-04-01T20:19:48;99050.23;;;8.19;100.00
61697;BME280;47610;52.252;20.922;2023-04-01T20:24:54;99051.12;;;8.15;100.00
61697;BME280;47610;52.252;20.922;2023-04-01T20:30:21;99054.91;;;8.10;100.00
61697;BME280;47610;52.252;20.922;2023-04-01T20:35:37;99061.61;;;8.08;100.00
61697;BME280;47610;52.252;20.922;2023-04-01T20:40:46;99065.38;;;8.04;100.00
61697;BME280;47610;52.252;20.922;2023-04-01T20:45:58;99072.98;;;7.96;100.00
61697;BME280;47610;52.252;20.922;2023-04-01T20:51:06;99076.31;;;7.86;100.00
61697;BME280;47610;52.252;20.922;2023-04-01T20:56:17;99087.48;;;7.76;100.00
61697;BME280;47610;52.252;20.922;2023-04-01T21:01:38;99092.40;;;7.65;100.00
61697;BME280;47610;52.252;20.922;2023-04-01T21:06:52;99099.11;;;7.54;100.00
61697;BME280;47610;52.252;20.922;2023-04-01T21:12:11;99104.08;;;7.52;100.00
61697;BME280;47610;52.252;20.922;2023-04-01T21:17:24;99111.73;;;7.53;100.00
61697;BME280;47610;52.252;20.922;2023-04-01T21:22:42;99115.98;;;7.50;100.00
61697;BME280;47610;52.252;20.922;2023-04-01T21:28:15;99120.73;;;7.49;100.00
61697;BME280;47610;52.252;20.922;2023-04-01T21:38:59;99136.08;;;7.55;100.00
61697;BME280;47610;52.252;20.922;2023-04-01T21:44:39;99140.38;;;7.58;100.00
61697;BME280;47610;52.252;20.922;2023-04-01T21:50:02;99149.20;;;7.59;100.00
61697;BME280;47610;52.252;20.922;2023-04-01T21:55:37;99155.02;;;7.57;100.00
61697;BME280;47610;52.252;20.922;2023-04-01T22:00:50;99162.47;;;7.56;100.00
61697;BME280;47610;52.252;20.922;2023-04-01T22:06:04;99162.13;;;7.58;100.00
61697;BME280;47610;52.252;20.922;2023-04-01T22:11:16;99165.85;;;7.59;100.00
61697;BME280;47610;52.252;20.922;2023-04-01T22:16:27;99166.30;;;7.56;100.00
61697;BME280;47610;52.252;20.922;2023-04-01T22:21:40;99177.63;;;7.51;100.00
61697;BME280;47610;52.252;20.922;2023-04-01T22:26:50;99184.73;;;7.44;100.00
61697;BME280;47610;52.252;20.922;2023-04-01T22:32:00;99181.41;;;7.33;100.00
61697;BME280;47610;52.252;20.922;2023-04-01T22:37:12;99194.70;;;7.29;100.00
61697;BME280;47610;52.252;20.922;2023-04-01T22:42:29;99199.43;;;7.24;100.00
61697;BME280;47610;52.252;20.922;2023-04-01T22:47:45;99206.58;;;7.18;100.00
61697;BME280;47610;52.252;20.922;2023-04-01T22:52:53;99207.69;;;7.14;100.00
61697;BME280;47610;52.252;20.922;2023-04-01T22:58:02;99210.33;;;7.11;100.00
61697;BME280;47610;52.252;20.922;2023-04-01T23:03:13;99217.73;;;7.08;100.00
61697;BME280;47610;52.252;20.922;2023-04-01T23:08:50;99219.94;;;7.06;100.00
61697;BME280;47610;52.252;20.922;2023-04-01T23:14:01;99218.23;;;7.08;100.00
61697;BME280;47610;52.252;20.922;2023-04-01T23:19:11;99211.20;;;7.03;100.00
61697;BME280;47610;52.252;20.922;2023-04-01T23:24:24;99228.41;;;7.06;100.00
61697;BME280;47610;52.252;20.922;2023-04-01T23:29:29;99231.16;;;7.04;100.00
61697;BME280;47610;52.252;20.922;2023-04-01T23:34:34;99235.91;;;7.05;100.00
61697;BME280;47610;52.252;20.922;2023-04-01T23:39:39;99243.70;;;7.04;100.00
61697;BME280;47610;52.252;20.922;2023-04-01T23:44:44;99251.86;;;7.01;100.00
61697;BME280;47610;52.252;20.922;2023-04-01T23:49:50;99255.17;;;6.96;100.00
61697;BME280;47610;52.252;20.922;2023-04-01T23:54:57;99267.88;;;6.91;100.00
